Impacts TAF Board INFO
FOR SITUATIONAL AWARENESS. NOT TO BE USED FOR FLIGHT PLANNING PURPOSES.
IDs:

KBTR - Baton Rouge/Ryan Fld, LA, US

Issued at 1348 UTC 23 Jun 2018
Updated at 1525 UTC 23 Jun 2018
Potential Impact None Slight Moderate High
Time1456Z 23/16Z 23/17Z 23/18Z 23/19Z 23/20Z 23/21Z 23/22Z 23/23Z 24/00Z 24/01Z 24/02Z 24/03Z 24/04Z>>
Type OBS PRVL PRVL PRVL PRVL PRVL PRVL PRVL PRVL PRVL PRVL PRVL PRVL PRVL
VIS 9 >6 >6 >6 >6 >6 >6 >6 >6 >6 >6 >6 >6 >6
CIG 28 35 35 35 35 35 35 35 35 35 -- -- -- --
Cover BKN BKN BKN BKN BKN BKN BKN BKN BKN BKN FEW FEW FEW FEW
FltCat MVFR VFR VFR VFR VFR VFR VFR VFR VFR VFR VFR VFR VFR VFR
WX -- -- -- -- -- -- -- -- -- -- -- -- -- --
WDir 220 230 230 230 230 230 230 230 230 230 190 190 190 190
WSpd 11 10 10 10 10 10 10 10 10 10 5 5 5 5
WGst -- -- -- -- -- -- -- -- -- -- -- -- -- --

Raw TAF
KBTR 231348Z 2314/2412 24008KT P6SM SCT015 BKN030
  FM231500 23010KT P6SM SCT020 BKN035
  TEMPO 2315/2316 BKN020
  FM240100 19005KT P6SM FEW050 FEW250


Raw METAR
KBTR 231456Z 22011KT 9SM SCT015 BKN028 29/24 A2995 RMK AO2 T02940244
KBTR 231453Z COR 22012KT 9SM SCT015 BKN028 29/24 A2995 RMK AO2 SLP140 T02940244 50009
KBTR 231353Z 25006KT 10SM BKN011 BKN035 28/25 A2996 RMK AO2 SLP143 T02780250
KBTR 231253Z 22008KT 7SM SCT010 27/24 A2994 RMK AO2 SLP137 T02720244

METAR Board
Radar Display
Forecast Discussion

FOR SITUATIONAL AWARENESS. NOT TO BE USED FOR FLIGHT PLANNING PURPOSES.